createdAt,value
2022-11-03T00:02:16.578Z,66.22
2022-11-03T00:04:44.534Z,66.15
2022-11-03T00:07:12.470Z,66.29
2022-11-03T00:09:40.241Z,66.26
2022-11-03T00:12:08.435Z,66.35
2022-11-03T00:14:36.166Z,66.34
2022-11-03T00:17:03.945Z,66.31
2022-11-03T00:19:31.700Z,66.33
2022-11-03T00:21:59.669Z,66.40
2022-11-03T00:24:27.433Z,66.32
2022-11-03T00:26:55.198Z,66.39
2022-11-03T00:29:25.047Z,66.53
2022-11-03T00:31:52.793Z,66.49
2022-11-03T00:34:20.525Z,66.82
2022-11-03T00:36:48.299Z,66.53
2022-11-03T00:39:16.029Z,66.61
2022-11-03T00:41:43.726Z,66.48
2022-11-03T00:44:13.503Z,66.54
2022-11-03T00:46:41.299Z,66.63
2022-11-03T00:49:09.003Z,66.59
2022-11-03T00:51:36.767Z,66.63
2022-11-03T00:54:06.037Z,66.66
2022-11-03T00:56:36.449Z,66.62
2022-11-03T00:59:06.088Z,66.62
2022-11-03T01:01:45.164Z,66.62
2022-11-03T01:04:36.300Z,66.61
2022-11-03T01:07:05.975Z,66.80
2022-11-03T01:09:33.874Z,66.77
2022-11-03T01:12:14.439Z,66.80
2022-11-03T01:14:53.121Z,66.76
2022-11-03T01:17:23.691Z,66.84
2022-11-03T01:19:52.190Z,66.77
2022-11-03T01:22:21.573Z,66.90
2022-11-03T01:24:51.831Z,66.78
2022-11-03T01:27:25.184Z,66.89
2022-11-03T01:29:53.154Z,66.93
2022-11-03T01:32:21.020Z,67.11
2022-11-03T01:34:48.989Z,67.12
2022-11-03T01:37:16.752Z,66.92
2022-11-03T01:39:44.490Z,67.19
2022-11-03T01:42:14.664Z,67.07
2022-11-03T01:44:48.419Z,67.07
2022-11-03T01:47:26.170Z,67.04
2022-11-03T01:50:07.755Z,67.18
2022-11-03T01:52:45.013Z,67.13
2022-11-03T01:55:29.672Z,67.29
2022-11-03T01:58:05.991Z,67.20
2022-11-03T02:00:35.134Z,67.23
2022-11-03T02:03:04.506Z,67.24
2022-11-03T02:05:32.902Z,67.32
2022-11-03T02:08:10.521Z,67.18
2022-11-03T02:10:38.822Z,67.39
2022-11-03T02:13:19.754Z,67.28
2022-11-03T02:15:49.938Z,67.29
2022-11-03T02:18:22.657Z,67.34
2022-11-03T02:21:03.505Z,67.36
2022-11-03T02:23:46.438Z,67.36
2022-11-03T02:26:16.269Z,67.41
2022-11-03T02:28:44.506Z,67.37
2022-11-03T02:31:35.622Z,67.38
2022-11-03T02:34:15.082Z,67.38
2022-11-03T02:36:56.668Z,67.42
2022-11-03T02:39:36.006Z,67.43
2022-11-03T02:42:05.397Z,67.48
2022-11-03T02:44:34.577Z,67.42
2022-11-03T02:47:08.356Z,67.59
2022-11-03T02:49:40.758Z,67.48
2022-11-03T02:52:41.940Z,67.54
2022-11-03T02:55:23.105Z,67.64
2022-11-03T02:58:00.703Z,67.69
2022-11-03T03:00:31.421Z,67.68
2022-11-03T03:03:11.589Z,67.75
2022-11-03T03:05:42.733Z,67.84
2022-11-03T03:08:12.462Z,67.80
2022-11-03T03:10:46.849Z,67.73
2022-11-03T03:13:18.487Z,67.84
2022-11-03T03:15:46.142Z,67.86
2022-11-03T03:18:31.244Z,67.79
2022-11-03T03:21:05.041Z,67.81
2022-11-03T03:23:37.017Z,67.72
2022-11-03T03:26:07.469Z,67.83
2022-11-03T03:28:48.513Z,67.76
2022-11-03T03:31:19.762Z,67.81
2022-11-03T03:33:53.266Z,67.82
2022-11-03T03:36:27.313Z,67.87
2022-11-03T03:39:02.691Z,67.79
2022-11-03T03:41:32.715Z,67.92
2022-11-03T03:44:06.109Z,67.83
2022-11-03T03:46:41.158Z,67.87
2022-11-03T03:49:09.472Z,67.92
2022-11-03T03:51:38.629Z,67.98
2022-11-03T03:54:06.525Z,67.84
2022-11-03T03:56:41.739Z,67.93
2022-11-03T03:59:09.505Z,67.91
2022-11-03T04:01:37.340Z,67.92
2022-11-03T04:04:05.424Z,67.92
2022-11-03T04:06:33.215Z,67.89
2022-11-03T04:09:00.962Z,68.03
2022-11-03T04:11:47.673Z,68.02
2022-11-03T04:14:34.481Z,68.02
2022-11-03T04:17:20.983Z,68.06
2022-11-03T04:20:07.386Z,68.04
2022-11-03T04:22:35.556Z,68.10
2022-11-03T04:25:03.495Z,68.05
2022-11-03T04:27:36.639Z,68.05
2022-11-03T04:30:10.257Z,68.03
2022-11-03T04:32:38.309Z,68.05
2022-11-03T04:35:22.741Z,68.23
2022-11-03T04:38:02.091Z,68.13
2022-11-03T04:40:29.922Z,68.06
2022-11-03T04:42:58.011Z,68.19
2022-11-03T04:45:30.282Z,68.09
2022-11-03T04:48:00.347Z,68.08
2022-11-03T04:50:28.164Z,68.16
2022-11-03T04:52:58.591Z,68.20
2022-11-03T04:55:27.006Z,68.13
2022-11-03T04:58:02.708Z,68.27
2022-11-03T05:00:30.423Z,68.22
2022-11-03T05:02:58.452Z,68.22
2022-11-03T05:05:26.946Z,68.26
2022-11-03T05:07:57.056Z,68.18
2022-11-03T05:10:29.342Z,68.22
2022-11-03T05:12:57.690Z,68.35
2022-11-03T05:15:34.986Z,68.22
2022-11-03T05:18:16.074Z,68.25
2022-11-03T05:20:54.373Z,68.34
2022-11-03T05:23:23.227Z,68.40
2022-11-03T05:25:53.894Z,68.40
2022-11-03T05:28:26.522Z,68.43
2022-11-03T05:30:55.056Z,68.43
2022-11-03T05:33:29.473Z,68.57
2022-11-03T05:36:00.922Z,68.49
2022-11-03T05:38:33.265Z,68.48
2022-11-03T05:41:01.571Z,68.56
2022-11-03T05:43:30.076Z,68.56
2022-11-03T05:46:02.323Z,68.61
2022-11-03T05:48:35.354Z,68.59
2022-11-03T05:51:22.627Z,68.53
2022-11-03T05:54:03.939Z,68.64
2022-11-03T05:56:33.250Z,68.64
2022-11-03T05:59:02.325Z,68.55
2022-11-03T06:01:35.626Z,68.70
2022-11-03T06:04:12.677Z,68.66
2022-11-03T06:06:41.171Z,68.73
2022-11-03T06:09:17.873Z,68.73
2022-11-03T06:11:46.315Z,68.68
2022-11-03T06:14:28.212Z,68.71
2022-11-03T06:17:08.261Z,68.83
2022-11-03T06:19:42.478Z,68.85
2022-11-03T06:22:24.715Z,68.91
2022-11-03T06:24:57.355Z,68.85
2022-11-03T06:27:28.394Z,68.86
2022-11-03T06:30:19.505Z,68.92
2022-11-03T06:32:47.371Z,68.88
2022-11-03T06:35:15.585Z,69.01
2022-11-03T06:37:44.585Z,69.12
2022-11-03T06:40:15.279Z,68.97
2022-11-03T06:42:43.444Z,69.09
2022-11-03T06:45:24.213Z,69.03
2022-11-03T06:47:55.334Z,69.17
2022-11-03T06:50:23.008Z,69.14
2022-11-03T06:52:52.215Z,69.15
2022-11-03T06:55:26.530Z,69.19
2022-11-03T06:58:00.582Z,69.20
2022-11-03T07:00:34.685Z,69.26
2022-11-03T07:03:11.224Z,69.21
2022-11-03T07:05:39.811Z,69.12
2022-11-03T07:08:43.319Z,69.22
2022-11-03T07:11:27.710Z,69.30
2022-11-03T07:14:31.825Z,69.18
2022-11-03T07:17:05.003Z,69.33
2022-11-03T07:19:45.275Z,69.30
2022-11-03T07:22:23.417Z,69.28
2022-11-03T07:24:59.305Z,69.25
2022-11-03T07:27:32.353Z,69.40
2022-11-03T07:30:22.870Z,69.34
2022-11-03T07:32:56.092Z,69.41
2022-11-03T07:36:14.962Z,69.39
2022-11-03T07:38:33.779Z,69.46
2022-11-03T07:41:01.644Z,69.38
2022-11-03T07:43:36.004Z,69.34
2022-11-03T07:46:05.878Z,69.45
2022-11-03T07:48:47.364Z,69.42
2022-11-03T07:51:30.065Z,69.43
2022-11-03T07:54:10.489Z,69.44
2022-11-03T07:57:00.427Z,69.44
2022-11-03T07:59:28.183Z,69.46
2022-11-03T08:01:57.799Z,69.43
2022-11-03T08:04:32.926Z,69.40
2022-11-03T08:07:00.848Z,69.36
2022-11-03T08:09:28.557Z,69.38
2022-11-03T08:11:56.333Z,69.44
2022-11-03T08:14:24.186Z,69.39
2022-11-03T08:16:51.908Z,69.40
2022-11-03T08:19:19.648Z,69.27
2022-11-03T08:21:47.485Z,69.40
2022-11-03T08:24:15.240Z,69.47
2022-11-03T08:26:43.107Z,69.39
2022-11-03T08:29:10.829Z,69.39
2022-11-03T08:31:38.636Z,69.36
2022-11-03T08:34:06.451Z,69.54
2022-11-03T08:36:34.264Z,69.55
2022-11-03T08:39:02.129Z,69.64
2022-11-03T08:41:31.076Z,69.48
2022-11-03T08:43:58.789Z,69.42
2022-11-03T08:46:26.650Z,69.56
2022-11-03T08:48:54.456Z,69.48
2022-11-03T08:51:22.178Z,69.34
2022-11-03T08:53:52.644Z,69.17
2022-11-03T08:56:22.564Z,69.20
2022-11-03T08:58:50.646Z,69.51
2022-11-03T09:01:18.888Z,69.41
2022-11-03T09:03:46.794Z,69.20
2022-11-03T09:06:14.810Z,69.40
2022-11-03T09:11:30.402Z,68.43
2022-11-03T09:13:58.196Z,68.12
2022-11-03T09:16:26.495Z,67.97
2022-11-03T09:18:54.636Z,67.70
2022-11-03T09:21:22.718Z,67.73
2022-11-03T09:23:50.548Z,67.39
2022-11-03T09:26:19.234Z,66.78
2022-11-03T09:28:49.459Z,67.33
2022-11-03T09:31:18.773Z,67.01
2022-11-03T09:33:46.620Z,66.81
2022-11-03T09:36:14.488Z,67.03
2022-11-03T09:38:42.255Z,66.72
2022-11-03T09:41:26.421Z,66.21
2022-11-03T09:43:58.357Z,66.30
2022-11-03T09:46:29.051Z,66.38
2022-11-03T09:48:57.085Z,66.22
2022-11-03T09:51:27.287Z,65.98
2022-11-03T09:54:02.245Z,65.75
2022-11-03T09:56:31.003Z,65.48
2022-11-03T09:58:59.998Z,65.31
2022-11-03T10:01:28.012Z,65.01
2022-11-03T10:03:59.639Z,64.64
2022-11-03T10:06:27.587Z,64.32
2022-11-03T10:08:56.146Z,64.31
2022-11-03T10:11:24.239Z,64.24
2022-11-03T10:13:56.343Z,64.40
2022-11-03T10:16:25.482Z,64.10
2022-11-03T10:18:53.685Z,64.03
2022-11-03T10:21:29.734Z,63.78
2022-11-03T10:23:57.447Z,63.21
2022-11-03T10:26:25.500Z,63.53
2022-11-03T10:29:05.065Z,62.91
2022-11-03T10:31:39.837Z,62.69
2022-11-03T10:34:39.520Z,62.47
2022-11-03T10:37:23.838Z,62.58
2022-11-03T10:39:54.798Z,62.59
2022-11-03T10:42:34.914Z,62.07
2022-11-03T10:45:21.922Z,61.77
2022-11-03T10:48:01.210Z,62.01
2022-11-03T10:50:29.816Z,61.68
2022-11-03T10:52:58.085Z,61.66
2022-11-03T10:55:27.071Z,61.28
2022-11-03T10:57:56.412Z,61.25
2022-11-03T11:00:24.981Z,61.22
2022-11-03T11:02:59.099Z,61.15
2022-11-03T11:05:27.540Z,60.88
2022-11-03T11:07:56.328Z,60.77
2022-11-03T11:10:27.134Z,60.76
2022-11-03T11:13:26.011Z,60.52
2022-11-03T11:15:59.895Z,60.06
2022-11-03T11:18:31.472Z,59.87
2022-11-03T11:21:01.731Z,59.85
2022-11-03T11:23:29.573Z,59.59
2022-11-03T11:26:10.772Z,59.73
2022-11-03T11:28:41.691Z,59.19
2022-11-03T11:31:27.651Z,59.29
2022-11-03T11:34:11.103Z,59.42
2022-11-03T11:36:41.974Z,58.90
2022-11-03T11:39:28.357Z,58.93
2022-11-03T11:42:19.954Z,58.69
2022-11-03T11:44:54.079Z,58.48
2022-11-03T11:47:31.763Z,58.20
2022-11-03T11:50:07.142Z,58.31
2022-11-03T11:52:53.821Z,58.00
2022-11-03T11:55:37.346Z,58.02
2022-11-03T11:58:07.822Z,57.44
2022-11-03T12:00:36.204Z,57.70
2022-11-03T12:03:06.955Z,57.73
2022-11-03T12:05:39.267Z,57.48
2022-11-03T12:08:21.644Z,57.36
2022-11-03T12:11:04.427Z,57.37
2022-11-03T12:13:36.475Z,57.04
2022-11-03T12:16:05.548Z,56.91
2022-11-03T12:18:50.224Z,57.07
2022-11-03T12:21:46.709Z,56.60
2022-11-03T12:24:33.660Z,56.45
2022-11-03T12:27:03.915Z,56.45
2022-11-03T12:29:31.951Z,56.59
2022-11-03T12:32:00.200Z,56.24
2022-11-03T12:34:30.163Z,56.15
2022-11-03T12:36:58.707Z,56.30
2022-11-03T12:39:26.670Z,56.26
2022-11-03T12:41:54.637Z,55.99
2022-11-03T12:44:22.922Z,55.93
2022-11-03T12:46:51.003Z,55.84
2022-11-03T12:49:19.434Z,55.93
2022-11-03T12:51:47.156Z,55.77
2022-11-03T12:54:16.019Z,55.69
2022-11-03T12:56:44.621Z,55.52
2022-11-03T12:59:12.657Z,55.63
2022-11-03T13:01:40.749Z,55.38
2022-11-03T13:04:09.306Z,55.50
2022-11-03T13:06:37.088Z,55.29
2022-11-03T13:09:06.292Z,55.16
2022-11-03T13:11:53.572Z,55.04
2022-11-03T13:14:22.822Z,55.08
2022-11-03T13:16:50.766Z,55.17
2022-11-03T13:19:20.194Z,54.86
2022-11-03T13:21:49.192Z,54.83
2022-11-03T13:24:17.909Z,54.79
2022-11-03T13:26:45.854Z,54.54
2022-11-03T13:29:13.785Z,54.53
2022-11-03T13:31:42.707Z,53.87
2022-11-03T13:34:10.775Z,53.67
2022-11-03T13:36:39.465Z,54.06
2022-11-03T13:39:07.216Z,53.89
2022-11-03T13:41:35.192Z,53.89
2022-11-03T13:44:03.117Z,53.79
2022-11-03T13:46:31.129Z,53.84
2022-11-03T13:51:46.975Z,53.33
2022-11-03T13:59:52.123Z,53.36
2022-11-03T14:05:11.719Z,53.22
2022-11-03T14:07:40.478Z,53.08
2022-11-03T14:10:09.217Z,53.00
2022-11-03T14:12:37.270Z,53.16
2022-11-03T14:15:11.671Z,52.97
2022-11-03T14:17:40.763Z,52.97
2022-11-03T14:20:12.345Z,53.00
2022-11-03T14:22:41.212Z,52.86
2022-11-03T14:25:10.416Z,52.91
2022-11-03T14:27:38.565Z,52.82
2022-11-03T14:30:07.795Z,52.85
2022-11-03T14:32:35.789Z,52.95
2022-11-03T14:35:04.017Z,52.72
2022-11-03T14:37:34.100Z,52.49
2022-11-03T14:40:02.256Z,52.69
2022-11-03T14:42:29.967Z,52.66
2022-11-03T14:44:58.835Z,52.68
2022-11-03T14:47:26.851Z,52.66
2022-11-03T14:49:54.818Z,52.66
2022-11-03T14:52:22.760Z,52.76
2022-11-03T14:54:53.212Z,52.73
2022-11-03T14:57:21.129Z,52.66
2022-11-03T14:59:53.254Z,52.64
2022-11-03T15:02:21.500Z,52.71
2022-11-03T15:04:50.301Z,52.63
2022-11-03T15:07:18.027Z,52.68
2022-11-03T15:09:45.819Z,52.60
2022-11-03T15:12:13.568Z,52.59
2022-11-03T15:14:41.349Z,52.61
2022-11-03T15:17:09.074Z,52.61
2022-11-03T15:19:38.058Z,52.65
2022-11-03T15:22:06.013Z,52.57
2022-11-03T15:27:22.190Z,52.54
2022-11-03T15:29:49.924Z,52.46
2022-11-03T15:32:17.872Z,52.50
2022-11-03T15:34:45.583Z,52.57
2022-11-03T15:37:14.148Z,52.57
2022-11-03T15:39:43.057Z,52.51
2022-11-03T15:42:10.977Z,52.58
2022-11-03T15:44:38.931Z,52.75
2022-11-03T15:47:08.200Z,52.71
2022-11-03T15:49:37.307Z,52.81
2022-11-03T15:52:06.803Z,52.80
2022-11-03T15:54:38.436Z,52.95
2022-11-03T15:57:11.298Z,52.97
2022-11-03T15:59:41.130Z,53.00
2022-11-03T16:02:27.599Z,52.91
2022-11-03T16:04:58.522Z,53.00
2022-11-03T16:07:27.271Z,52.96
2022-11-03T16:09:57.060Z,52.96
2022-11-03T16:12:25.822Z,52.97
2022-11-03T16:14:54.991Z,52.91
2022-11-03T16:17:23.764Z,52.99
2022-11-03T16:19:51.775Z,53.02
2022-11-03T16:22:19.774Z,53.15
2022-11-03T16:24:48.776Z,53.28
2022-11-03T16:27:18.578Z,53.17
2022-11-03T16:29:48.461Z,53.05
2022-11-03T16:32:16.219Z,53.09
2022-11-03T16:34:45.643Z,53.15
2022-11-03T16:37:14.975Z,53.31
2022-11-03T16:39:43.955Z,53.19
2022-11-03T16:42:12.967Z,53.17
2022-11-03T16:44:40.945Z,53.41
2022-11-03T16:47:08.915Z,53.30
2022-11-03T16:49:42.294Z,53.24
2022-11-03T16:52:10.284Z,53.31
2022-11-03T16:54:39.138Z,53.23
2022-11-03T16:57:06.896Z,53.34
2022-11-03T16:59:35.163Z,53.60
2022-11-03T17:02:03.085Z,53.55
2022-11-03T17:04:34.001Z,53.60
2022-11-03T17:07:01.965Z,53.45
2022-11-03T17:09:29.903Z,53.62
2022-11-03T17:11:57.643Z,53.73
2022-11-03T17:14:25.366Z,53.77
2022-11-03T17:16:53.077Z,53.69
2022-11-03T17:19:22.246Z,53.84
2022-11-03T17:21:50.501Z,53.90
2022-11-03T17:24:19.242Z,53.94
2022-11-03T17:26:54.528Z,53.89
2022-11-03T17:29:36.865Z,53.86
2022-11-03T17:32:13.740Z,53.77
2022-11-03T17:34:41.549Z,54.01
2022-11-03T17:37:10.377Z,53.94
2022-11-03T17:39:42.185Z,53.90
2022-11-03T17:42:18.487Z,53.91
2022-11-03T17:44:49.561Z,53.91
2022-11-03T17:47:19.559Z,54.17
2022-11-03T17:49:48.796Z,54.25
2022-11-03T17:52:16.516Z,54.27
2022-11-03T17:54:45.048Z,54.33
2022-11-03T17:57:19.119Z,54.35
2022-11-03T17:59:50.967Z,54.29
2022-11-03T18:02:25.743Z,54.17
2022-11-03T18:05:20.316Z,54.54
2022-11-03T18:07:51.354Z,54.37
2022-11-03T18:10:20.476Z,54.66
2022-11-03T18:13:10.974Z,54.41
2022-11-03T18:15:41.510Z,54.99
2022-11-03T18:18:14.930Z,55.22
2022-11-03T18:20:52.921Z,55.11
2022-11-03T18:23:26.767Z,55.27
2022-11-03T18:25:54.567Z,55.28
2022-11-03T18:28:22.458Z,55.29
2022-11-03T18:30:54.550Z,55.31
2022-11-03T18:33:30.355Z,55.11
2022-11-03T18:36:03.186Z,55.15
2022-11-03T18:38:31.189Z,55.28
2022-11-03T18:40:59.182Z,55.26
2022-11-03T18:43:29.681Z,55.46
2022-11-03T18:45:57.480Z,55.45
2022-11-03T18:48:25.213Z,55.72
2022-11-03T18:50:57.234Z,55.65
2022-11-03T18:53:26.927Z,55.67
2022-11-03T18:56:00.633Z,55.90
2022-11-03T18:58:28.483Z,55.87
2022-11-03T19:00:57.121Z,55.81
2022-11-03T19:03:25.118Z,55.90
2022-11-03T19:05:54.032Z,56.09
2022-11-03T19:08:32.728Z,56.07
2022-11-03T19:11:04.520Z,56.61
2022-11-03T19:13:46.860Z,56.28
2022-11-03T19:16:22.864Z,56.78
2022-11-03T19:18:52.577Z,56.92
2022-11-03T19:21:24.314Z,57.18
2022-11-03T19:23:58.144Z,57.02
2022-11-03T19:26:34.620Z,56.72
2022-11-03T19:29:19.127Z,57.08
2022-11-03T19:31:50.210Z,57.00
2022-11-03T19:34:27.942Z,56.95
2022-11-03T19:36:58.088Z,57.10
2022-11-03T19:39:37.024Z,57.21
2022-11-03T19:42:30.427Z,57.39
2022-11-03T19:45:01.130Z,57.53
2022-11-03T19:47:41.787Z,57.44
2022-11-03T19:50:26.645Z,57.47
2022-11-03T19:53:03.359Z,57.53
2022-11-03T19:55:35.482Z,57.57
2022-11-03T19:58:14.333Z,57.58
2022-11-03T20:00:45.208Z,57.84
2022-11-03T20:03:14.712Z,57.79
2022-11-03T20:05:49.291Z,57.90
2022-11-03T20:08:22.946Z,57.99
2022-11-03T20:10:51.765Z,57.99
2022-11-03T20:13:25.942Z,58.18
2022-11-03T20:16:00.631Z,58.31
2022-11-03T20:18:30.311Z,58.26
2022-11-03T20:20:59.133Z,58.22
2022-11-03T20:23:31.569Z,58.34
2022-11-03T20:26:00.753Z,58.45
2022-11-03T20:28:32.552Z,58.42
2022-11-03T20:31:03.122Z,58.30
2022-11-03T20:33:30.947Z,58.39
2022-11-03T20:35:59.980Z,58.50
2022-11-03T20:38:29.131Z,58.64
2022-11-03T20:41:02.089Z,58.88
2022-11-03T20:43:38.607Z,58.84
2022-11-03T20:46:34.514Z,58.69
2022-11-03T20:49:02.641Z,58.94
2022-11-03T20:51:34.601Z,58.95
2022-11-03T20:54:11.827Z,58.83
2022-11-03T20:56:39.814Z,59.13
2022-11-03T20:59:11.427Z,59.09
2022-11-03T21:01:41.228Z,59.03
2022-11-03T21:04:17.501Z,59.17
2022-11-03T21:06:46.624Z,58.97
2022-11-03T21:09:19.174Z,59.17
2022-11-03T21:11:52.586Z,59.48
2022-11-03T21:14:33.890Z,59.22
2022-11-03T21:17:20.587Z,59.39
2022-11-03T21:20:03.813Z,59.40
2022-11-03T21:22:54.417Z,59.62
2022-11-03T21:25:25.134Z,59.51
2022-11-03T21:27:54.995Z,59.48
2022-11-03T21:30:24.195Z,59.33
2022-11-03T21:32:52.238Z,59.58
2022-11-03T21:35:22.215Z,59.67
2022-11-03T21:37:50.180Z,59.49
2022-11-03T21:40:18.346Z,59.53
2022-11-03T21:43:05.863Z,59.64
2022-11-03T21:45:33.683Z,59.81
2022-11-03T21:48:21.557Z,59.77
2022-11-03T21:50:50.693Z,59.72
2022-11-03T21:53:18.663Z,59.91
2022-11-03T21:55:50.323Z,59.76
2022-11-03T21:58:18.971Z,59.92
2022-11-03T22:00:48.328Z,59.90
2022-11-03T22:03:16.855Z,59.89
2022-11-03T22:05:44.846Z,59.94
2022-11-03T22:08:13.704Z,60.10
2022-11-03T22:10:41.957Z,60.03
2022-11-03T22:13:11.308Z,60.14
2022-11-03T22:15:59.918Z,60.09
2022-11-03T22:18:27.658Z,60.34
2022-11-03T22:21:17.174Z,60.25
2022-11-03T22:24:13.882Z,60.20
2022-11-03T22:26:56.929Z,60.31
2022-11-03T22:29:48.137Z,60.35
2022-11-03T22:32:16.165Z,60.44
2022-11-03T22:35:04.097Z,60.33
2022-11-03T22:40:19.067Z,60.45
2022-11-03T22:43:05.773Z,60.56
2022-11-03T22:45:55.776Z,60.48
2022-11-03T22:48:26.476Z,60.65
2022-11-03T22:51:01.499Z,60.52
2022-11-03T22:53:51.060Z,60.60
2022-11-03T22:56:20.567Z,60.79
2022-11-03T22:58:48.554Z,60.88
2022-11-03T23:01:22.962Z,60.86
2022-11-03T23:03:51.080Z,60.94
2022-11-03T23:06:25.900Z,60.93
2022-11-03T23:08:55.765Z,61.02
2022-11-03T23:11:33.329Z,60.98
2022-11-03T23:14:10.480Z,60.90
2022-11-03T23:16:42.438Z,61.03
2022-11-03T23:19:32.971Z,60.99
2022-11-03T23:22:01.944Z,61.09
2022-11-03T23:24:48.857Z,61.01
2022-11-03T23:27:16.584Z,61.03
2022-11-03T23:29:44.264Z,61.02
2022-11-03T23:32:12.841Z,61.12
2022-11-03T23:34:40.783Z,61.07
2022-11-03T23:37:08.747Z,61.30
2022-11-03T23:39:36.680Z,61.20
2022-11-03T23:42:04.827Z,61.25
2022-11-03T23:44:52.732Z,61.12
2022-11-03T23:47:39.005Z,61.56
2022-11-03T23:50:07.994Z,61.44
2022-11-03T23:52:35.939Z,61.64
2022-11-03T23:55:04.763Z,61.78
2022-11-03T23:57:51.380Z,62.03
